createdAt,value
2023-01-05T00:03:38.180Z,100222.4
2023-01-05T00:09:22.627Z,100216.7
2023-01-05T00:15:03.613Z,100210.7
2023-01-05T00:20:48.925Z,100209
2023-01-05T00:26:26.670Z,100204.7
2023-01-05T00:32:03.269Z,100200.7
2023-01-05T00:37:40.195Z,100196.2
2023-01-05T00:43:15.842Z,100189.9
2023-01-05T00:48:50.869Z,100184.2
2023-01-05T00:54:27.287Z,100179.3
2023-01-05T01:00:03.108Z,100173.9
2023-01-05T01:05:38.307Z,100165.5
2023-01-05T01:11:19.457Z,100163.8
2023-01-05T01:17:06.607Z,100157.2
2023-01-05T01:22:51.761Z,100152.3
2023-01-05T01:28:27.114Z,100150
2023-01-05T01:34:09.767Z,100145.4
2023-01-05T01:39:48.348Z,100140.8
2023-01-05T01:45:27.236Z,100139.8
2023-01-05T01:51:08.933Z,100135.1
2023-01-05T01:56:45.332Z,100133.4
2023-01-05T02:02:22.485Z,100135
2023-01-05T02:07:58.894Z,100132.7
2023-01-05T02:13:33.955Z,100126.9
2023-01-05T02:19:35.054Z,100126.7
2023-01-05T02:25:23.527Z,100124.3
2023-01-05T02:31:23.990Z,100118.2
2023-01-05T02:37:15.048Z,100110.6
2023-01-05T02:42:52.933Z,100106.9
2023-01-05T02:48:28.578Z,100100.4
2023-01-05T02:54:24.994Z,100100.5
2023-01-05T03:00:03.296Z,100093.5
2023-01-05T03:05:43.759Z,100089.3
2023-01-05T03:11:18.872Z,100079.8
2023-01-05T03:16:55.353Z,100075.4
2023-01-05T03:22:30.891Z,100069.9
2023-01-05T03:28:06.201Z,100064.7
2023-01-05T03:33:41.434Z,100059.2
2023-01-05T03:39:17.802Z,100054.9
2023-01-05T03:45:05.486Z,100052.6
2023-01-05T03:50:55.397Z,100046.2
2023-01-05T03:56:45.097Z,100042.8
2023-01-05T04:02:30.233Z,100040.2
2023-01-05T04:08:39.943Z,100034.6
2023-01-05T04:14:18.454Z,100028.3
2023-01-05T04:19:54.056Z,100020.6
2023-01-05T04:25:50.400Z,100016.6
2023-01-05T04:31:26.040Z,100014.2
2023-01-05T04:37:01.266Z,100011.9
2023-01-05T04:42:47.612Z,100008.7
2023-01-05T04:48:24.828Z,100008.7
2023-01-05T04:54:07.500Z,100007.5
2023-01-05T04:59:46.727Z,100003
2023-01-05T05:05:28.974Z,100004.8
2023-01-05T05:11:09.532Z,100004.9
2023-01-05T05:17:34.209Z,99997.8
2023-01-05T05:23:20.870Z,99995.7
2023-01-05T05:29:22.039Z,99993.2
2023-01-05T05:34:57.035Z,99990.3
2023-01-05T05:40:32.949Z,99989.5
2023-01-05T05:46:14.349Z,99986.3
2023-01-05T05:51:53.650Z,99983.6
2023-01-05T05:57:30.996Z,99982.5
2023-01-05T06:03:06.966Z,99977
2023-01-05T06:08:43.483Z,99974
2023-01-05T06:15:05.966Z,99975.2
2023-01-05T06:20:47.952Z,99974.9
2023-01-05T06:26:37.560Z,99974.8
2023-01-05T06:32:21.733Z,99977.2
2023-01-05T06:37:57.042Z,99978.1
2023-01-05T06:43:43.541Z,99975.8
2023-01-05T06:49:18.864Z,99973
2023-01-05T06:54:57.524Z,99965.2
2023-01-05T07:00:47.375Z,99968.6
2023-01-05T07:06:23.269Z,99973.2
2023-01-05T07:12:05.237Z,99972.2
2023-01-05T07:17:40.381Z,99975.9
2023-01-05T07:23:15.343Z,99973.8
2023-01-05T07:29:00.696Z,99967.8
2023-01-05T07:35:22.634Z,99970.1
2023-01-05T07:41:10.641Z,99967.7
2023-01-05T07:46:50.058Z,99965.6
2023-01-05T07:52:49.584Z,99963.5
2023-01-05T07:58:30.315Z,99959.7
2023-01-05T08:04:15.399Z,99961.5
2023-01-05T08:09:57.400Z,99957
2023-01-05T08:15:32.895Z,99957
2023-01-05T08:21:08.659Z,99958.3
2023-01-05T08:26:44.242Z,99959.4
2023-01-05T08:32:21.096Z,99960.7
2023-01-05T08:37:57.097Z,99956.4
2023-01-05T08:43:33.277Z,99954.3
2023-01-05T08:49:08.349Z,99957.7
2023-01-05T08:54:43.902Z,99961.9
2023-01-05T09:00:19.555Z,99956.9
2023-01-05T09:05:55.087Z,99955.4
2023-01-05T09:11:30.656Z,99957.4
2023-01-05T09:17:10.087Z,99960.7
2023-01-05T09:22:46.748Z,99959.7
2023-01-05T09:28:22.363Z,99955.9
2023-01-05T09:33:58.200Z,99955.2
2023-01-05T09:39:33.776Z,99953.4
2023-01-05T09:45:09.784Z,99947.2
2023-01-05T09:50:47.779Z,99953.5
2023-01-05T09:57:10.956Z,99954.1
2023-01-05T10:02:47.803Z,99949.7
2023-01-05T10:08:23.893Z,99947.3
2023-01-05T10:14:01.056Z,99944.5
2023-01-05T10:19:36.954Z,99944.8
2023-01-05T10:25:13.113Z,99937.2
2023-01-05T10:30:49.063Z,99933.7
2023-01-05T10:37:14.666Z,99930.9
2023-01-05T10:42:51.344Z,99923.1
2023-01-05T10:48:27.340Z,99916.6
2023-01-05T10:54:04.470Z,99915.3
2023-01-05T10:59:41.063Z,99909.4
2023-01-05T11:05:17.524Z,99897.2
2023-01-05T11:10:55.802Z,99885.1
2023-01-05T11:16:31.740Z,99880.3
2023-01-05T11:22:07.048Z,99873.1
2023-01-05T11:27:43.397Z,99865.1
2023-01-05T11:33:26.436Z,99847.5
2023-01-05T11:39:01.977Z,99835.9
2023-01-05T11:44:38.324Z,99825.6
2023-01-05T11:50:13.685Z,99821.2
2023-01-05T11:55:51.371Z,99815.6
2023-01-05T12:01:27.420Z,99809.9
2023-01-05T12:07:09.692Z,99802
2023-01-05T12:12:46.248Z,99795.3
2023-01-05T12:18:21.962Z,99777.4
2023-01-05T12:23:57.816Z,99765.8
2023-01-05T12:33:35.703Z,99754.3
2023-01-05T12:39:51.000Z,99739.6
2023-01-05T12:45:32.787Z,99731
2023-01-05T12:51:08.027Z,99717.2
2023-01-05T12:56:45.704Z,99713.7
2023-01-05T13:02:22.246Z,99704.2
2023-01-05T13:07:59.768Z,99693.6
2023-01-05T13:13:36.458Z,99689.7
2023-01-05T13:19:24.508Z,99684.6
2023-01-05T13:25:00.137Z,99679.5
2023-01-05T13:30:39.711Z,99673.6
2023-01-05T13:36:18.571Z,99668
2023-01-05T13:41:54.102Z,99663.4
2023-01-05T13:47:37.392Z,99661.2
2023-01-05T13:59:01.202Z,99647.1
2023-01-05T14:04:37.398Z,99642.3
2023-01-05T14:10:13.034Z,99639.6
2023-01-05T14:15:48.530Z,99631
2023-01-05T14:21:24.754Z,99627.2
2023-01-05T14:27:00.389Z,99625.4
2023-01-05T14:32:44.787Z,99620.9
2023-01-05T14:38:20.867Z,99622.1
2023-01-05T14:44:04.693Z,99611.2
2023-01-05T14:49:40.076Z,99607.8
2023-01-05T14:55:40.396Z,99606.1
2023-01-05T15:01:18.334Z,99598.9
2023-01-05T15:06:53.984Z,99601.5
2023-01-05T15:12:39.233Z,99597.3
2023-01-05T15:18:14.453Z,99594.9
2023-01-05T15:23:50.469Z,99593.3
2023-01-05T15:29:27.333Z,99587.4
2023-01-05T15:35:03.448Z,99587.5
2023-01-05T15:40:38.976Z,99593
2023-01-05T15:46:15.932Z,99591.1
2023-01-05T15:51:51.446Z,99590.6
2023-01-05T15:57:26.365Z,99585.9
2023-01-05T16:03:03.728Z,99587.5
2023-01-05T16:08:39.324Z,99583.6
2023-01-05T16:14:14.849Z,99579.6
2023-01-05T16:19:51.330Z,99577.5
2023-01-05T16:25:28.032Z,99580
2023-01-05T16:31:03.341Z,99577.4
2023-01-05T16:36:40.156Z,99578.1
2023-01-05T16:42:16.694Z,99574.8
2023-01-05T16:47:51.586Z,99570.3
2023-01-05T16:53:27.777Z,99570.5
2023-01-05T16:59:03.436Z,99571.1
2023-01-05T17:04:38.780Z,99565
2023-01-05T17:10:15.141Z,99561
2023-01-05T17:15:50.811Z,99557
2023-01-05T17:21:26.293Z,99554.1
2023-01-05T17:27:03.371Z,99554.4
2023-01-05T17:32:40.040Z,99549.1
2023-01-05T17:38:15.393Z,99551.3
2023-01-05T17:43:51.663Z,99546.9
2023-01-05T17:55:03.804Z,99541.4
2023-01-05T18:00:43.728Z,99538.7
2023-01-05T18:06:20.416Z,99542.1
2023-01-05T18:11:56.821Z,99538.6
2023-01-05T18:23:47.641Z,99529.5
2023-01-05T18:29:28.564Z,99533.8
2023-01-05T18:35:21.483Z,99532.1
2023-01-05T18:41:06.222Z,99534.3
2023-01-05T18:46:41.547Z,99524.5
2023-01-05T18:52:18.016Z,99518
2023-01-05T18:57:53.846Z,99512.1
2023-01-05T19:03:29.818Z,99508.5
2023-01-05T19:09:06.877Z,99502.1
2023-01-05T19:14:48.531Z,99498.6
2023-01-05T19:20:24.327Z,99496.1
2023-01-05T19:26:02.404Z,99491.3
2023-01-05T19:31:47.486Z,99488.6
2023-01-05T19:37:24.868Z,99485.1
2023-01-05T19:43:02.117Z,99484.3
2023-01-05T19:48:37.612Z,99487.6
2023-01-05T19:54:17.413Z,99481.5
2023-01-05T20:00:14.649Z,99478.5
2023-01-05T20:05:52.937Z,99477
2023-01-05T20:11:32.047Z,99481.8
2023-01-05T20:17:08.082Z,99484.5
2023-01-05T20:22:43.187Z,99486.2
2023-01-05T20:28:33.477Z,99483.6
2023-01-05T20:34:09.551Z,99482.3
2023-01-05T20:39:44.990Z,99482.9
2023-01-05T20:45:20.918Z,99480.7
2023-01-05T20:51:19.305Z,99481.5
2023-01-05T20:57:40.495Z,99487.2
2023-01-05T21:03:42.625Z,99482.3
2023-01-05T21:09:22.701Z,99485.4
2023-01-05T21:15:02.252Z,99479.9
2023-01-05T21:20:37.218Z,99484.7
2023-01-05T21:26:32.561Z,99492.8
2023-01-05T21:32:08.271Z,99491.6
2023-01-05T21:37:43.533Z,99485.5
2023-01-05T21:43:29.421Z,99480.2
2023-01-05T21:49:05.361Z,99477.6
2023-01-05T21:54:40.398Z,99475.6
2023-01-05T22:00:16.444Z,99478.6
2023-01-05T22:05:53.941Z,99479.1
2023-01-05T22:11:40.569Z,99478.9
2023-01-05T22:17:16.648Z,99476.2
2023-01-05T22:23:12.915Z,99471.7
2023-01-05T22:28:53.154Z,99470.7
2023-01-05T22:34:41.143Z,99474.1
2023-01-05T22:40:41.647Z,99477.2
2023-01-05T22:46:17.425Z,99481.8
2023-01-05T22:51:54.279Z,99476.3
2023-01-05T22:57:29.942Z,99469.7
2023-01-05T23:03:29.940Z,99461.3
2023-01-05T23:09:08.651Z,99457.5
2023-01-05T23:14:44.304Z,99457.6
2023-01-05T23:20:41.742Z,99458.4
2023-01-05T23:26:20.268Z,99456.3
2023-01-05T23:31:59.341Z,99447.6
2023-01-05T23:37:34.302Z,99442.3
2023-01-05T23:43:37.553Z,99442.4
2023-01-05T23:49:56.624Z,99442.4
2023-01-05T23:55:29.226Z,99445.5
